sensor_id;sensor_type;location;lat;lon;timestamp;P1;durP1;ratioP1;P2;durP2;ratioP2
49610;SDS011;35515;48.766;9.176;2022-08-19T00:01:10;16.58;;;12.15;;
49610;SDS011;35515;48.766;9.176;2022-08-19T00:03:37;19.50;;;13.25;;
49610;SDS011;35515;48.766;9.176;2022-08-19T00:06:04;16.00;;;13.07;;
49610;SDS011;35515;48.766;9.176;2022-08-19T00:08:30;16.02;;;12.40;;
49610;SDS011;35515;48.766;9.176;2022-08-19T00:10:57;15.13;;;11.45;;
49610;SDS011;35515;48.766;9.176;2022-08-19T00:13:24;14.35;;;11.45;;
49610;SDS011;35515;48.766;9.176;2022-08-19T00:15:53;14.35;;;11.82;;
49610;SDS011;35515;48.766;9.176;2022-08-19T00:18:19;12.60;;;10.70;;
49610;SDS011;35515;48.766;9.176;2022-08-19T00:20:46;15.77;;;11.20;;
49610;SDS011;35515;48.766;9.176;2022-08-19T00:23:13;14.73;;;11.70;;
49610;SDS011;35515;48.766;9.176;2022-08-19T00:25:40;13.05;;;11.57;;
49610;SDS011;35515;48.766;9.176;2022-08-19T00:28:06;14.32;;;12.02;;
49610;SDS011;35515;48.766;9.176;2022-08-19T00:30:33;14.23;;;11.35;;
49610;SDS011;35515;48.766;9.176;2022-08-19T00:33:01;16.45;;;12.30;;
49610;SDS011;35515;48.766;9.176;2022-08-19T00:35:28;15.98;;;11.88;;
49610;SDS011;35515;48.766;9.176;2022-08-19T00:37:55;15.85;;;12.50;;
49610;SDS011;35515;48.766;9.176;2022-08-19T00:40:22;17.50;;;11.57;;
49610;SDS011;35515;48.766;9.176;2022-08-19T00:42:50;17.83;;;13.13;;
49610;SDS011;35515;48.766;9.176;2022-08-19T00:45:19;16.33;;;12.75;;
49610;SDS011;35515;48.766;9.176;2022-08-19T00:47:47;16.95;;;11.93;;
49610;SDS011;35515;48.766;9.176;2022-08-19T00:50:17;18.45;;;13.43;;
49610;SDS011;35515;48.766;9.176;2022-08-19T00:52:47;18.55;;;14.00;;
49610;SDS011;35515;48.766;9.176;2022-08-19T00:55:18;16.02;;;12.90;;
49610;SDS011;35515;48.766;9.176;2022-08-19T00:57:49;16.02;;;13.30;;
49610;SDS011;35515;48.766;9.176;2022-08-19T01:00:20;15.00;;;11.93;;
49610;SDS011;35515;48.766;9.176;2022-08-19T01:02:49;15.30;;;11.98;;
49610;SDS011;35515;48.766;9.176;2022-08-19T01:05:18;18.00;;;13.48;;
49610;SDS011;35515;48.766;9.176;2022-08-19T01:07:47;16.95;;;12.30;;
49610;SDS011;35515;48.766;9.176;2022-08-19T01:10:18;15.73;;;13.23;;
49610;SDS011;35515;48.766;9.176;2022-08-19T01:12:48;18.75;;;13.05;;
49610;SDS011;35515;48.766;9.176;2022-08-19T01:15:19;19.75;;;13.70;;
49610;SDS011;35515;48.766;9.176;2022-08-19T01:17:49;17.33;;;12.48;;
49610;SDS011;35515;48.766;9.176;2022-08-19T01:20:20;15.52;;;13.07;;
49610;SDS011;35515;48.766;9.176;2022-08-19T01:22:51;16.05;;;12.43;;
49610;SDS011;35515;48.766;9.176;2022-08-19T01:25:20;14.88;;;11.75;;
49610;SDS011;35515;48.766;9.176;2022-08-19T01:27:50;15.82;;;12.80;;
49610;SDS011;35515;48.766;9.176;2022-08-19T01:30:21;14.77;;;12.00;;
49610;SDS011;35515;48.766;9.176;2022-08-19T01:32:50;14.98;;;12.43;;
49610;SDS011;35515;48.766;9.176;2022-08-19T01:35:17;16.42;;;11.85;;
49610;SDS011;35515;48.766;9.176;2022-08-19T01:37:46;15.80;;;11.77;;
49610;SDS011;35515;48.766;9.176;2022-08-19T01:40:16;16.58;;;13.13;;
49610;SDS011;35515;48.766;9.176;2022-08-19T01:42:45;15.47;;;13.03;;
49610;SDS011;35515;48.766;9.176;2022-08-19T01:45:12;17.77;;;13.40;;
49610;SDS011;35515;48.766;9.176;2022-08-19T01:47:40;18.50;;;13.55;;
49610;SDS011;35515;48.766;9.176;2022-08-19T01:50:07;14.57;;;12.13;;
49610;SDS011;35515;48.766;9.176;2022-08-19T01:52:35;14.98;;;12.25;;
49610;SDS011;35515;48.766;9.176;2022-08-19T01:55:03;16.33;;;13.68;;
49610;SDS011;35515;48.766;9.176;2022-08-19T01:57:33;19.45;;;14.60;;
49610;SDS011;35515;48.766;9.176;2022-08-19T02:00:00;18.92;;;13.85;;
49610;SDS011;35515;48.766;9.176;2022-08-19T02:02:30;18.88;;;13.57;;
49610;SDS011;35515;48.766;9.176;2022-08-19T02:04:57;15.43;;;11.88;;
49610;SDS011;35515;48.766;9.176;2022-08-19T02:07:24;18.92;;;13.80;;
49610;SDS011;35515;48.766;9.176;2022-08-19T02:09:50;19.13;;;12.07;;
49610;SDS011;35515;48.766;9.176;2022-08-19T02:12:17;19.88;;;14.85;;
49610;SDS011;35515;48.766;9.176;2022-08-19T02:14:45;22.35;;;15.60;;
49610;SDS011;35515;48.766;9.176;2022-08-19T02:17:11;18.77;;;14.70;;
49610;SDS011;35515;48.766;9.176;2022-08-19T02:19:38;17.20;;;14.30;;
49610;SDS011;35515;48.766;9.176;2022-08-19T02:22:05;17.83;;;13.63;;
49610;SDS011;35515;48.766;9.176;2022-08-19T02:24:32;20.33;;;15.18;;
49610;SDS011;35515;48.766;9.176;2022-08-19T02:26:59;23.95;;;15.57;;
49610;SDS011;35515;48.766;9.176;2022-08-19T02:29:25;20.48;;;15.05;;
49610;SDS011;35515;48.766;9.176;2022-08-19T02:31:54;17.42;;;13.98;;
49610;SDS011;35515;48.766;9.176;2022-08-19T02:34:20;18.20;;;13.02;;
49610;SDS011;35515;48.766;9.176;2022-08-19T02:36:47;16.90;;;13.48;;
49610;SDS011;35515;48.766;9.176;2022-08-19T02:39:13;20.08;;;15.50;;
49610;SDS011;35515;48.766;9.176;2022-08-19T02:41:39;19.75;;;15.88;;
49610;SDS011;35515;48.766;9.176;2022-08-19T02:44:06;21.90;;;15.77;;
49610;SDS011;35515;48.766;9.176;2022-08-19T02:46:33;25.90;;;16.70;;
49610;SDS011;35515;48.766;9.176;2022-08-19T02:49:03;19.40;;;15.13;;
49610;SDS011;35515;48.766;9.176;2022-08-19T02:51:31;18.40;;;14.15;;
49610;SDS011;35515;48.766;9.176;2022-08-19T02:54:00;20.95;;;16.67;;
49610;SDS011;35515;48.766;9.176;2022-08-19T02:56:27;21.95;;;16.20;;
49610;SDS011;35515;48.766;9.176;2022-08-19T02:58:56;21.48;;;16.67;;
49610;SDS011;35515;48.766;9.176;2022-08-19T03:01:24;19.92;;;16.13;;
49610;SDS011;35515;48.766;9.176;2022-08-19T03:03:52;20.30;;;15.50;;
49610;SDS011;35515;48.766;9.176;2022-08-19T03:06:20;22.80;;;16.95;;
49610;SDS011;35515;48.766;9.176;2022-08-19T03:08:47;21.35;;;16.70;;
49610;SDS011;35515;48.766;9.176;2022-08-19T03:11:15;20.17;;;15.85;;
49610;SDS011;35515;48.766;9.176;2022-08-19T03:13:43;22.15;;;17.10;;
49610;SDS011;35515;48.766;9.176;2022-08-19T03:16:11;22.40;;;16.92;;
49610;SDS011;35515;48.766;9.176;2022-08-19T03:18:38;23.42;;;18.08;;
49610;SDS011;35515;48.766;9.176;2022-08-19T03:21:06;23.98;;;18.00;;
49610;SDS011;35515;48.766;9.176;2022-08-19T03:23:34;21.52;;;17.23;;
49610;SDS011;35515;48.766;9.176;2022-08-19T03:26:03;21.65;;;17.65;;
49610;SDS011;35515;48.766;9.176;2022-08-19T03:28:31;26.85;;;19.23;;
49610;SDS011;35515;48.766;9.176;2022-08-19T03:30:59;24.60;;;18.23;;
49610;SDS011;35515;48.766;9.176;2022-08-19T03:33:29;24.90;;;19.00;;
49610;SDS011;35515;48.766;9.176;2022-08-19T03:36:01;24.63;;;18.67;;
49610;SDS011;35515;48.766;9.176;2022-08-19T03:38:40;25.48;;;19.23;;
49610;SDS011;35515;48.766;9.176;2022-08-19T03:41:08;23.85;;;18.40;;
49610;SDS011;35515;48.766;9.176;2022-08-19T03:46:07;23.35;;;19.00;;
49610;SDS011;35515;48.766;9.176;2022-08-19T03:48:45;26.98;;;18.60;;
49610;SDS011;35515;48.766;9.176;2022-08-19T03:51:15;27.20;;;19.20;;
49610;SDS011;35515;48.766;9.176;2022-08-19T03:53:45;28.13;;;19.55;;
49610;SDS011;35515;48.766;9.176;2022-08-19T03:56:13;23.42;;;18.92;;
49610;SDS011;35515;48.766;9.176;2022-08-19T03:58:40;23.67;;;19.13;;
49610;SDS011;35515;48.766;9.176;2022-08-19T04:01:07;28.15;;;20.58;;
49610;SDS011;35515;48.766;9.176;2022-08-19T04:03:35;24.33;;;19.67;;
49610;SDS011;35515;48.766;9.176;2022-08-19T04:06:08;28.52;;;21.42;;
49610;SDS011;35515;48.766;9.176;2022-08-19T04:08:37;26.08;;;20.00;;
49610;SDS011;35515;48.766;9.176;2022-08-19T04:11:07;25.20;;;19.08;;
49610;SDS011;35515;48.766;9.176;2022-08-19T04:13:35;29.27;;;20.48;;
49610;SDS011;35515;48.766;9.176;2022-08-19T04:16:04;28.30;;;21.17;;
49610;SDS011;35515;48.766;9.176;2022-08-19T04:18:31;26.38;;;19.88;;
49610;SDS011;35515;48.766;9.176;2022-08-19T04:20:59;25.55;;;18.15;;
49610;SDS011;35515;48.766;9.176;2022-08-19T04:23:26;26.33;;;20.20;;
49610;SDS011;35515;48.766;9.176;2022-08-19T04:25:53;24.83;;;19.50;;
49610;SDS011;35515;48.766;9.176;2022-08-19T04:28:22;21.90;;;17.98;;
49610;SDS011;35515;48.766;9.176;2022-08-19T04:30:49;23.35;;;17.90;;
49610;SDS011;35515;48.766;9.176;2022-08-19T04:33:19;31.02;;;21.65;;
49610;SDS011;35515;48.766;9.176;2022-08-19T04:35:50;30.73;;;21.80;;
49610;SDS011;35515;48.766;9.176;2022-08-19T04:38:19;28.92;;;21.20;;
49610;SDS011;35515;48.766;9.176;2022-08-19T04:40:49;23.48;;;18.92;;
49610;SDS011;35515;48.766;9.176;2022-08-19T04:43:36;26.13;;;19.70;;
49610;SDS011;35515;48.766;9.176;2022-08-19T04:46:05;28.33;;;20.50;;
49610;SDS011;35515;48.766;9.176;2022-08-19T04:48:34;25.45;;;20.35;;
49610;SDS011;35515;48.766;9.176;2022-08-19T04:51:00;25.77;;;20.02;;
49610;SDS011;35515;48.766;9.176;2022-08-19T04:53:31;29.42;;;21.40;;
49610;SDS011;35515;48.766;9.176;2022-08-19T04:56:03;25.48;;;19.52;;
49610;SDS011;35515;48.766;9.176;2022-08-19T04:58:32;26.52;;;21.02;;
49610;SDS011;35515;48.766;9.176;2022-08-19T05:01:00;29.58;;;21.55;;
49610;SDS011;35515;48.766;9.176;2022-08-19T05:03:27;27.23;;;21.02;;
49610;SDS011;35515;48.766;9.176;2022-08-19T05:05:58;28.90;;;20.65;;
49610;SDS011;35515;48.766;9.176;2022-08-19T05:08:29;30.08;;;21.63;;
49610;SDS011;35515;48.766;9.176;2022-08-19T05:10:56;29.65;;;20.80;;
49610;SDS011;35515;48.766;9.176;2022-08-19T05:13:23;24.27;;;20.08;;
49610;SDS011;35515;48.766;9.176;2022-08-19T05:15:53;25.65;;;19.40;;
49610;SDS011;35515;48.766;9.176;2022-08-19T05:18:22;31.35;;;21.88;;
49610;SDS011;35515;48.766;9.176;2022-08-19T05:21:07;29.85;;;21.05;;
49610;SDS011;35515;48.766;9.176;2022-08-19T05:23:51;31.92;;;21.38;;
49610;SDS011;35515;48.766;9.176;2022-08-19T05:26:18;31.70;;;20.58;;
49610;SDS011;35515;48.766;9.176;2022-08-19T05:28:45;35.55;;;22.35;;
49610;SDS011;35515;48.766;9.176;2022-08-19T05:31:11;37.33;;;21.17;;
49610;SDS011;35515;48.766;9.176;2022-08-19T05:33:39;37.72;;;21.98;;
49610;SDS011;35515;48.766;9.176;2022-08-19T05:36:06;31.50;;;21.33;;
49610;SDS011;35515;48.766;9.176;2022-08-19T05:38:33;28.70;;;20.38;;
49610;SDS011;35515;48.766;9.176;2022-08-19T05:41:00;34.22;;;20.92;;
49610;SDS011;35515;48.766;9.176;2022-08-19T05:43:27;60.78;;;25.38;;
49610;SDS011;35515;48.766;9.176;2022-08-19T05:49:12;32.60;;;22.13;;
49610;SDS011;35515;48.766;9.176;2022-08-19T05:51:40;47.30;;;22.80;;
49610;SDS011;35515;48.766;9.176;2022-08-19T05:54:06;27.27;;;19.55;;
49610;SDS011;35515;48.766;9.176;2022-08-19T05:56:33;28.63;;;21.45;;
49610;SDS011;35515;48.766;9.176;2022-08-19T05:59:03;30.17;;;21.95;;
49610;SDS011;35515;48.766;9.176;2022-08-19T06:01:36;31.55;;;21.27;;
49610;SDS011;35515;48.766;9.176;2022-08-19T06:04:03;29.17;;;21.00;;
49610;SDS011;35515;48.766;9.176;2022-08-19T06:06:32;27.33;;;20.00;;
49610;SDS011;35515;48.766;9.176;2022-08-19T06:08:59;24.77;;;20.33;;
49610;SDS011;35515;48.766;9.176;2022-08-19T06:11:31;27.45;;;19.23;;
49610;SDS011;35515;48.766;9.176;2022-08-19T06:14:00;27.67;;;19.77;;
49610;SDS011;35515;48.766;9.176;2022-08-19T06:16:28;27.08;;;19.60;;
49610;SDS011;35515;48.766;9.176;2022-08-19T06:18:59;31.80;;;19.93;;
49610;SDS011;35515;48.766;9.176;2022-08-19T06:21:27;31.83;;;20.75;;
49610;SDS011;35515;48.766;9.176;2022-08-19T06:23:56;36.63;;;20.98;;
49610;SDS011;35515;48.766;9.176;2022-08-19T06:26:23;30.02;;;19.77;;
49610;SDS011;35515;48.766;9.176;2022-08-19T06:28:51;28.00;;;20.83;;
49610;SDS011;35515;48.766;9.176;2022-08-19T06:31:19;28.42;;;20.25;;
49610;SDS011;35515;48.766;9.176;2022-08-19T06:33:47;26.88;;;20.05;;
49610;SDS011;35515;48.766;9.176;2022-08-19T06:36:18;27.02;;;20.05;;
49610;SDS011;35515;48.766;9.176;2022-08-19T06:38:46;28.02;;;20.63;;
49610;SDS011;35515;48.766;9.176;2022-08-19T06:41:14;29.52;;;20.95;;
49610;SDS011;35515;48.766;9.176;2022-08-19T06:43:41;28.25;;;20.80;;
49610;SDS011;35515;48.766;9.176;2022-08-19T06:46:11;31.05;;;22.85;;
49610;SDS011;35515;48.766;9.176;2022-08-19T06:48:39;27.80;;;21.30;;
49610;SDS011;35515;48.766;9.176;2022-08-19T06:51:06;32.63;;;23.35;;
49610;SDS011;35515;48.766;9.176;2022-08-19T06:53:33;27.42;;;21.00;;
49610;SDS011;35515;48.766;9.176;2022-08-19T06:55:59;29.02;;;20.98;;
49610;SDS011;35515;48.766;9.176;2022-08-19T06:58:28;30.25;;;22.02;;
49610;SDS011;35515;48.766;9.176;2022-08-19T07:00:58;30.77;;;21.70;;
49610;SDS011;35515;48.766;9.176;2022-08-19T07:03:28;29.77;;;21.02;;
49610;SDS011;35515;48.766;9.176;2022-08-19T07:05:56;29.42;;;21.35;;
49610;SDS011;35515;48.766;9.176;2022-08-19T07:08:24;29.33;;;21.63;;
49610;SDS011;35515;48.766;9.176;2022-08-19T07:10:52;29.52;;;21.83;;
49610;SDS011;35515;48.766;9.176;2022-08-19T07:13:19;32.70;;;21.45;;
49610;SDS011;35515;48.766;9.176;2022-08-19T07:15:48;32.70;;;24.45;;
49610;SDS011;35515;48.766;9.176;2022-08-19T07:18:15;35.50;;;22.00;;
49610;SDS011;35515;48.766;9.176;2022-08-19T07:20:43;25.63;;;20.63;;
49610;SDS011;35515;48.766;9.176;2022-08-19T07:23:09;35.05;;;22.80;;
49610;SDS011;35515;48.766;9.176;2022-08-19T07:25:36;31.15;;;23.50;;
49610;SDS011;35515;48.766;9.176;2022-08-19T07:28:03;31.30;;;20.67;;
49610;SDS011;35515;48.766;9.176;2022-08-19T07:30:35;26.33;;;19.95;;
49610;SDS011;35515;48.766;9.176;2022-08-19T07:33:04;39.40;;;22.42;;
49610;SDS011;35515;48.766;9.176;2022-08-19T07:35:31;47.10;;;24.02;;
49610;SDS011;35515;48.766;9.176;2022-08-19T07:40:27;24.50;;;19.23;;
49610;SDS011;35515;48.766;9.176;2022-08-19T07:42:54;26.65;;;19.75;;
49610;SDS011;35515;48.766;9.176;2022-08-19T07:45:20;26.35;;;19.92;;
49610;SDS011;35515;48.766;9.176;2022-08-19T07:47:47;29.15;;;19.67;;
49610;SDS011;35515;48.766;9.176;2022-08-19T07:50:15;44.30;;;21.33;;
49610;SDS011;35515;48.766;9.176;2022-08-19T07:52:44;30.17;;;19.13;;
49610;SDS011;35515;48.766;9.176;2022-08-19T07:55:11;26.17;;;19.77;;
49610;SDS011;35515;48.766;9.176;2022-08-19T07:57:38;30.10;;;18.67;;
49610;SDS011;35515;48.766;9.176;2022-08-19T08:00:05;24.42;;;19.48;;
49610;SDS011;35515;48.766;9.176;2022-08-19T08:02:33;29.02;;;20.55;;
49610;SDS011;35515;48.766;9.176;2022-08-19T08:04:59;23.95;;;19.42;;
49610;SDS011;35515;48.766;9.176;2022-08-19T08:07:50;25.02;;;18.70;;
49610;SDS011;35515;48.766;9.176;2022-08-19T08:10:34;24.02;;;18.58;;
49610;SDS011;35515;48.766;9.176;2022-08-19T08:13:00;26.02;;;18.73;;
49610;SDS011;35515;48.766;9.176;2022-08-19T08:15:29;24.67;;;18.50;;
49610;SDS011;35515;48.766;9.176;2022-08-19T08:17:56;23.15;;;17.23;;
49610;SDS011;35515;48.766;9.176;2022-08-19T08:20:23;25.73;;;18.05;;
49610;SDS011;35515;48.766;9.176;2022-08-19T08:22:51;24.88;;;19.17;;
49610;SDS011;35515;48.766;9.176;2022-08-19T08:25:36;23.98;;;17.98;;
49610;SDS011;35515;48.766;9.176;2022-08-19T08:28:03;22.95;;;17.63;;
49610;SDS011;35515;48.766;9.176;2022-08-19T08:30:30;26.88;;;18.65;;
49610;SDS011;35515;48.766;9.176;2022-08-19T08:33:00;25.03;;;19.13;;
49610;SDS011;35515;48.766;9.176;2022-08-19T08:35:27;23.67;;;18.23;;
49610;SDS011;35515;48.766;9.176;2022-08-19T08:37:55;23.50;;;18.35;;
49610;SDS011;35515;48.766;9.176;2022-08-19T08:40:23;21.88;;;17.55;;
49610;SDS011;35515;48.766;9.176;2022-08-19T08:42:55;26.75;;;19.38;;
49610;SDS011;35515;48.766;9.176;2022-08-19T08:45:25;25.73;;;18.55;;
49610;SDS011;35515;48.766;9.176;2022-08-19T08:47:53;23.67;;;17.70;;
49610;SDS011;35515;48.766;9.176;2022-08-19T08:50:29;24.10;;;18.92;;
49610;SDS011;35515;48.766;9.176;2022-08-19T08:53:02;24.45;;;19.13;;
49610;SDS011;35515;48.766;9.176;2022-08-19T08:57:59;23.35;;;18.05;;
49610;SDS011;35515;48.766;9.176;2022-08-19T09:02:57;26.73;;;20.38;;
49610;SDS011;35515;48.766;9.176;2022-08-19T09:05:25;23.90;;;18.35;;
49610;SDS011;35515;48.766;9.176;2022-08-19T09:08:02;24.17;;;18.80;;
49610;SDS011;35515;48.766;9.176;2022-08-19T09:10:34;24.92;;;20.10;;
49610;SDS011;35515;48.766;9.176;2022-08-19T09:13:05;23.25;;;19.15;;
49610;SDS011;35515;48.766;9.176;2022-08-19T09:15:42;23.77;;;17.90;;
49610;SDS011;35515;48.766;9.176;2022-08-19T09:18:11;25.27;;;18.60;;
49610;SDS011;35515;48.766;9.176;2022-08-19T09:20:38;26.23;;;18.55;;
49610;SDS011;35515;48.766;9.176;2022-08-19T09:23:06;25.38;;;18.65;;
49610;SDS011;35515;48.766;9.176;2022-08-19T09:25:33;28.02;;;19.08;;
49610;SDS011;35515;48.766;9.176;2022-08-19T09:27:59;20.80;;;16.50;;
49610;SDS011;35515;48.766;9.176;2022-08-19T09:30:28;22.55;;;17.10;;
49610;SDS011;35515;48.766;9.176;2022-08-19T09:32:57;21.50;;;16.90;;
49610;SDS011;35515;48.766;9.176;2022-08-19T09:35:25;21.73;;;17.02;;
49610;SDS011;35515;48.766;9.176;2022-08-19T09:37:54;19.42;;;14.82;;
49610;SDS011;35515;48.766;9.176;2022-08-19T09:40:23;25.30;;;17.95;;
49610;SDS011;35515;48.766;9.176;2022-08-19T09:42:51;21.77;;;15.73;;
49610;SDS011;35515;48.766;9.176;2022-08-19T09:45:19;22.38;;;17.30;;
49610;SDS011;35515;48.766;9.176;2022-08-19T09:47:47;24.48;;;15.40;;
49610;SDS011;35515;48.766;9.176;2022-08-19T09:50:13;21.58;;;16.45;;
49610;SDS011;35515;48.766;9.176;2022-08-19T09:52:40;22.38;;;17.00;;
49610;SDS011;35515;48.766;9.176;2022-08-19T09:55:08;21.23;;;15.80;;
49610;SDS011;35515;48.766;9.176;2022-08-19T09:57:38;20.55;;;14.90;;
49610;SDS011;35515;48.766;9.176;2022-08-19T10:00:06;20.70;;;15.05;;
49610;SDS011;35515;48.766;9.176;2022-08-19T10:02:34;19.02;;;14.07;;
49610;SDS011;35515;48.766;9.176;2022-08-19T10:05:01;18.30;;;14.70;;
49610;SDS011;35515;48.766;9.176;2022-08-19T10:07:44;17.88;;;13.70;;
49610;SDS011;35515;48.766;9.176;2022-08-19T10:10:12;17.95;;;13.38;;
49610;SDS011;35515;48.766;9.176;2022-08-19T10:12:40;19.73;;;14.38;;
49610;SDS011;35515;48.766;9.176;2022-08-19T10:15:07;19.70;;;14.73;;
49610;SDS011;35515;48.766;9.176;2022-08-19T10:17:34;16.40;;;13.32;;
49610;SDS011;35515;48.766;9.176;2022-08-19T10:20:02;18.02;;;14.07;;
49610;SDS011;35515;48.766;9.176;2022-08-19T10:22:29;17.73;;;13.35;;
49610;SDS011;35515;48.766;9.176;2022-08-19T10:24:56;17.13;;;13.35;;
49610;SDS011;35515;48.766;9.176;2022-08-19T10:27:23;15.65;;;12.50;;
49610;SDS011;35515;48.766;9.176;2022-08-19T10:29:51;19.85;;;13.50;;
49610;SDS011;35515;48.766;9.176;2022-08-19T10:32:17;18.73;;;13.07;;
49610;SDS011;35515;48.766;9.176;2022-08-19T10:34:46;17.27;;;13.38;;
49610;SDS011;35515;48.766;9.176;2022-08-19T10:37:14;17.25;;;13.77;;
49610;SDS011;35515;48.766;9.176;2022-08-19T10:39:42;16.63;;;13.15;;
49610;SDS011;35515;48.766;9.176;2022-08-19T10:42:11;41.67;;;14.52;;
49610;SDS011;35515;48.766;9.176;2022-08-19T10:44:38;18.45;;;14.43;;
49610;SDS011;35515;48.766;9.176;2022-08-19T10:47:07;18.13;;;12.98;;
49610;SDS011;35515;48.766;9.176;2022-08-19T10:49:34;19.30;;;12.65;;
49610;SDS011;35515;48.766;9.176;2022-08-19T10:52:21;15.65;;;12.55;;
49610;SDS011;35515;48.766;9.176;2022-08-19T10:54:58;15.02;;;11.63;;
49610;SDS011;35515;48.766;9.176;2022-08-19T10:57:43;14.20;;;10.27;;
49610;SDS011;35515;48.766;9.176;2022-08-19T11:00:10;14.57;;;11.75;;
49610;SDS011;35515;48.766;9.176;2022-08-19T11:02:39;15.35;;;11.02;;
49610;SDS011;35515;48.766;9.176;2022-08-19T11:05:06;21.35;;;12.25;;
49610;SDS011;35515;48.766;9.176;2022-08-19T11:07:35;18.10;;;11.70;;
49610;SDS011;35515;48.766;9.176;2022-08-19T11:10:02;15.30;;;11.95;;
49610;SDS011;35515;48.766;9.176;2022-08-19T11:12:30;17.52;;;10.75;;
49610;SDS011;35515;48.766;9.176;2022-08-19T11:14:57;12.43;;;10.10;;
49610;SDS011;35515;48.766;9.176;2022-08-19T11:17:24;14.52;;;9.70;;
49610;SDS011;35515;48.766;9.176;2022-08-19T11:19:52;13.00;;;10.48;;
49610;SDS011;35515;48.766;9.176;2022-08-19T11:22:19;12.48;;;10.00;;
49610;SDS011;35515;48.766;9.176;2022-08-19T11:24:46;12.20;;;9.35;;
49610;SDS011;35515;48.766;9.176;2022-08-19T11:27:13;13.35;;;9.68;;
49610;SDS011;35515;48.766;9.176;2022-08-19T11:29:40;11.77;;;10.25;;
49610;SDS011;35515;48.766;9.176;2022-08-19T11:32:08;13.20;;;10.30;;
49610;SDS011;35515;48.766;9.176;2022-08-19T11:34:36;13.05;;;10.20;;
49610;SDS011;35515;48.766;9.176;2022-08-19T11:37:05;13.20;;;10.35;;
49610;SDS011;35515;48.766;9.176;2022-08-19T11:39:34;15.38;;;10.77;;
49610;SDS011;35515;48.766;9.176;2022-08-19T11:42:02;14.90;;;10.05;;
49610;SDS011;35515;48.766;9.176;2022-08-19T11:44:50;15.38;;;10.00;;
49610;SDS011;35515;48.766;9.176;2022-08-19T11:47:17;12.20;;;9.63;;
49610;SDS011;35515;48.766;9.176;2022-08-19T11:49:45;11.05;;;8.88;;
49610;SDS011;35515;48.766;9.176;2022-08-19T11:52:13;12.38;;;9.15;;
49610;SDS011;35515;48.766;9.176;2022-08-19T11:54:40;17.08;;;10.15;;
49610;SDS011;35515;48.766;9.176;2022-08-19T11:57:06;15.00;;;10.35;;
49610;SDS011;35515;48.766;9.176;2022-08-19T11:59:33;10.93;;;9.27;;
49610;SDS011;35515;48.766;9.176;2022-08-19T12:01:59;14.65;;;9.55;;
49610;SDS011;35515;48.766;9.176;2022-08-19T12:04:26;13.25;;;10.10;;
49610;SDS011;35515;48.766;9.176;2022-08-19T12:06:52;11.43;;;8.73;;
49610;SDS011;35515;48.766;9.176;2022-08-19T12:09:21;12.13;;;8.75;;
49610;SDS011;35515;48.766;9.176;2022-08-19T12:11:48;11.50;;;8.77;;
49610;SDS011;35515;48.766;9.176;2022-08-19T12:14:15;12.50;;;9.43;;
49610;SDS011;35515;48.766;9.176;2022-08-19T12:16:43;11.05;;;9.25;;
49610;SDS011;35515;48.766;9.176;2022-08-19T12:19:11;11.25;;;9.27;;
49610;SDS011;35515;48.766;9.176;2022-08-19T12:21:38;14.50;;;9.73;;
49610;SDS011;35515;48.766;9.176;2022-08-19T12:24:05;10.55;;;9.18;;
49610;SDS011;35515;48.766;9.176;2022-08-19T12:26:33;11.18;;;9.25;;
49610;SDS011;35515;48.766;9.176;2022-08-19T12:29:01;11.20;;;9.73;;
49610;SDS011;35515;48.766;9.176;2022-08-19T12:31:28;11.52;;;9.27;;
49610;SDS011;35515;48.766;9.176;2022-08-19T12:33:56;12.10;;;9.18;;
49610;SDS011;35515;48.766;9.176;2022-08-19T12:36:23;13.02;;;9.30;;
49610;SDS011;35515;48.766;9.176;2022-08-19T12:38:50;11.32;;;8.98;;
49610;SDS011;35515;48.766;9.176;2022-08-19T12:41:18;13.32;;;10.30;;
49610;SDS011;35515;48.766;9.176;2022-08-19T12:43:48;14.38;;;10.90;;
49610;SDS011;35515;48.766;9.176;2022-08-19T12:46:15;15.55;;;10.55;;
49610;SDS011;35515;48.766;9.176;2022-08-19T12:48:43;15.07;;;10.55;;
49610;SDS011;35515;48.766;9.176;2022-08-19T12:51:12;15.40;;;11.25;;
49610;SDS011;35515;48.766;9.176;2022-08-19T12:53:40;16.63;;;9.53;;
49610;SDS011;35515;48.766;9.176;2022-08-19T12:56:08;11.27;;;9.52;;
49610;SDS011;35515;48.766;9.176;2022-08-19T12:58:39;12.43;;;9.60;;
49610;SDS011;35515;48.766;9.176;2022-08-19T13:01:08;11.90;;;9.30;;
49610;SDS011;35515;48.766;9.176;2022-08-19T13:03:36;11.15;;;9.07;;
49610;SDS011;35515;48.766;9.176;2022-08-19T13:06:03;13.90;;;9.75;;
49610;SDS011;35515;48.766;9.176;2022-08-19T13:08:29;14.35;;;10.63;;
49610;SDS011;35515;48.766;9.176;2022-08-19T13:10:57;12.13;;;10.18;;
49610;SDS011;35515;48.766;9.176;2022-08-19T13:13:23;13.13;;;9.80;;
49610;SDS011;35515;48.766;9.176;2022-08-19T13:15:50;12.80;;;10.02;;
49610;SDS011;35515;48.766;9.176;2022-08-19T13:18:19;14.02;;;10.13;;
49610;SDS011;35515;48.766;9.176;2022-08-19T13:20:46;12.43;;;10.70;;
49610;SDS011;35515;48.766;9.176;2022-08-19T13:23:12;16.13;;;12.75;;
49610;SDS011;35515;48.766;9.176;2022-08-19T13:25:39;16.95;;;11.75;;
49610;SDS011;35515;48.766;9.176;2022-08-19T13:28:05;20.33;;;13.60;;
49610;SDS011;35515;48.766;9.176;2022-08-19T13:30:32;14.80;;;13.05;;
49610;SDS011;35515;48.766;9.176;2022-08-19T13:33:17;18.60;;;14.68;;
49610;SDS011;35515;48.766;9.176;2022-08-19T13:35:47;22.13;;;16.27;;
49610;SDS011;35515;48.766;9.176;2022-08-19T13:38:16;22.27;;;16.45;;
49610;SDS011;35515;48.766;9.176;2022-08-19T13:40:45;20.90;;;16.55;;
49610;SDS011;35515;48.766;9.176;2022-08-19T13:43:13;22.98;;;18.33;;
49610;SDS011;35515;48.766;9.176;2022-08-19T13:45:40;22.75;;;18.92;;
49610;SDS011;35515;48.766;9.176;2022-08-19T13:48:07;22.17;;;17.70;;
49610;SDS011;35515;48.766;9.176;2022-08-19T13:50:35;26.15;;;20.02;;
49610;SDS011;35515;48.766;9.176;2022-08-19T13:53:06;24.85;;;19.08;;
49610;SDS011;35515;48.766;9.176;2022-08-19T13:55:34;24.77;;;19.88;;
49610;SDS011;35515;48.766;9.176;2022-08-19T13:58:02;27.98;;;22.13;;
49610;SDS011;35515;48.766;9.176;2022-08-19T14:00:30;28.40;;;22.13;;
49610;SDS011;35515;48.766;9.176;2022-08-19T14:03:01;30.27;;;23.63;;
49610;SDS011;35515;48.766;9.176;2022-08-19T14:05:29;30.25;;;23.52;;
49610;SDS011;35515;48.766;9.176;2022-08-19T14:07:56;30.02;;;23.70;;
49610;SDS011;35515;48.766;9.176;2022-08-19T14:10:25;34.53;;;25.48;;
49610;SDS011;35515;48.766;9.176;2022-08-19T14:12:53;35.88;;;25.60;;
49610;SDS011;35515;48.766;9.176;2022-08-19T14:15:20;35.83;;;26.02;;
49610;SDS011;35515;48.766;9.176;2022-08-19T14:17:48;34.10;;;25.40;;
49610;SDS011;35515;48.766;9.176;2022-08-19T14:20:14;34.40;;;26.23;;
49610;SDS011;35515;48.766;9.176;2022-08-19T14:22:42;29.02;;;23.52;;
49610;SDS011;35515;48.766;9.176;2022-08-19T14:25:11;28.77;;;23.17;;
49610;SDS011;35515;48.766;9.176;2022-08-19T14:27:41;28.90;;;22.58;;
49610;SDS011;35515;48.766;9.176;2022-08-19T14:30:08;27.55;;;22.08;;
49610;SDS011;35515;48.766;9.176;2022-08-19T14:32:36;28.77;;;22.55;;
49610;SDS011;35515;48.766;9.176;2022-08-19T14:35:04;29.30;;;22.67;;
49610;SDS011;35515;48.766;9.176;2022-08-19T14:37:32;27.27;;;20.83;;
49610;SDS011;35515;48.766;9.176;2022-08-19T14:39:59;24.23;;;19.63;;
49610;SDS011;35515;48.766;9.176;2022-08-19T14:42:25;26.33;;;20.48;;
49610;SDS011;35515;48.766;9.176;2022-08-19T14:44:53;24.88;;;20.23;;